Flight Track Log - Related Links

Times and Time Zones

All times are in EDT time to prevent confusion due to time zone crossing. See the SWA3206 flight status page for this flight to view local times or setup timezone preferences in your user account.

Time Position Orientation Groundspeed Altitude Reporting Facility
EDT Latitude Longitude Course Direction KTS MPH feet Rate Location/Type
Tue 02:00:34 PM 41.7500 -87.8333 270° West 220 253 3,800  Level Chicago TRACON
Tue 02:01:34 PM 41.7500 -87.9167 270° West 253 291 6,700 2,835 Climbing Chicago TRACON
Tue 02:02:41 PM 41.7567 -88.0092 276° West 254 292 9,800 3,163 Climbing Chicago Center
Tue 02:03:43 PM 41.7489 -88.1289 265° West 273 314 13,500 2,419 Climbing Chicago Center
Tue 02:04:45 PM 41.7500 -88.2497 271° West 321 369 14,800 2,032 Climbing Chicago Center
Tue 02:05:47 PM 41.7475 -88.3797 269° West 351 404 17,700 2,516 Climbing Chicago Center
Tue 02:06:49 PM 41.7442 -88.5139 268° West 362 417 20,000 2,371 Climbing Chicago Center
Tue 02:07:51 PM 41.7364 -88.6869 267° West 389 448 22,600 2,226 Climbing Chicago Center
Tue 02:08:53 PM 41.7053 -88.8331 254° West 412 474 24,600 1,854 Climbing Chicago Center
Tue 02:09:54 PM 41.6753 -88.9817 255° West 418 481 26,400 1,659 Climbing Chicago Center
Tue 02:10:56 PM 41.6431 -89.1344 254° West 427 491 28,000 1,500 Climbing Chicago Center
Tue 02:11:58 PM 41.6114 -89.2914 255° West 440 506 29,500 1,742 Climbing Chicago Center
Tue 02:13:00 PM 41.5836 -89.4494 257° West 442 509 31,600 1,935 Climbing Chicago Center
Tue 02:14:02 PM 41.5542 -89.6197 257° West 431 496 33,500 1,645 Climbing Chicago Center
Tue 02:15:04 PM 41.5267 -89.7733 257° West 428 493 35,000 1,366 Climbing Chicago Center
Tue 02:16:05 PM 41.4997 -89.9236 257° West 422 486 36,300 1,171 Climbing Chicago Center
Tue 02:17:07 PM 41.4669 -90.1047 256° West 420 483 37,400 823 Climbing Chicago Center
Tue 02:18:09 PM 41.4383 -90.2569 256° West 425 489 38,000 290 Climbing Chicago Center
Tue 02:19:11 PM 41.4108 -90.4097 257° West 426 490 38,000  Level Chicago Center
Tue 02:20:13 PM 41.3814 -90.5611 256° West 425 489 38,000  Level Chicago Center
Tue 02:21:15 PM 41.3517 -90.7164 256° West 434 499 38,000  Level Chicago Center
Tue 02:22:17 PM 41.3233 -90.8683 256° West 427 491 38,000  Level Chicago Center
Tue 02:23:18 PM 41.2883 -91.0489 256° West 422 486 38,000  Level Chicago Center
Tue 02:24:20 PM 41.2600 -91.1992 256° West 422 486 38,000  Level Chicago Center
Tue 02:25:22 PM 41.2300 -91.3492 255° West 421 484 38,000  Level Chicago Center
Tue 02:26:24 PM 41.2019 -91.4983 256° West 420 483 38,000  Level Chicago Center
Tue 02:27:26 PM 41.1717 -91.6469 255° West 417 480 38,000  Level Chicago Center
Tue 02:28:28 PM 41.1408 -91.8033 255° West 417 480 38,000  Level Chicago Center
Tue 02:29:30 PM 41.1108 -91.9503 255° West 419 482 38,000  Level Chicago Center
Tue 02:30:32 PM 41.0761 -92.1278 256° West 420 483 38,000  Level Chicago Center
Tue 02:31:34 PM 41.0444 -92.2744 254° West 420 483 38,000  Level Chicago Center
Tue 02:32:36 PM 41.0150 -92.4211 255° West 419 482 38,000  Level Chicago Center
Tue 02:33:38 PM 40.9842 -92.5672 254° West 417 480 38,000  Level Chicago Center
Tue 02:34:39 PM 40.9544 -92.7133 255° West 417 480 38,000  Level Chicago Center
Tue 02:35:41 PM 40.9161 -92.8900 254° West 420 483 38,000  Level Chicago Center
Tue 02:36:35 PM 40.8914 -93.0072 254° West 418 481 38,000  Level Minneapolis Center
Tue 02:37:48 PM 40.8606 -93.1533 254° West 418 481 38,000  Level Minneapolis Center
Tue 02:38:51 PM 40.8183 -93.3539 255° West 413 475 38,000  Level Minneapolis Center
Tue 02:39:52 PM 40.7869 -93.5003 254° West 416 479 38,000  Level Minneapolis Center
Tue 02:40:54 PM 40.7525 -93.6472 253° West 421 484 38,000  Level Minneapolis Center
Tue 02:41:56 PM 40.7214 -93.7931 254° West 420 483 38,000  Level Minneapolis Center
Tue 02:43:10 PM 40.6839 -93.9656 254° West 417 480 38,000  Level Minneapolis Center
Tue 02:44:12 PM 40.6436 -94.1367 253° West 413 475 38,000  Level Minneapolis Center
Tue 02:45:14 PM 40.6136 -94.2781 254° West 410 472 38,000  Level Minneapolis Center
Tue 02:46:15 PM 40.5811 -94.4208 253° West 410 472 38,000  Level Minneapolis Center
Tue 02:47:17 PM 40.5453 -94.5706 253° West 411 473 38,000  Level Minneapolis Center
Tue 02:48:19 PM 40.5142 -94.7147 254° West 411 473 38,000  Level Minneapolis Center
Tue 02:49:21 PM 40.4806 -94.8586 253° West 412 474 38,000  Level Minneapolis Center
Tue 02:50:22 PM 40.4542 -94.9731 253° West 410 472 38,000  Level Minneapolis Center
Tue 02:51:24 PM 40.4147 -95.1453 253° West 410 472 38,000  Level Minneapolis Center
Tue 02:52:26 PM 40.3811 -95.2878 253° West 409 471 38,000  Level Minneapolis Center
Tue 02:53:28 PM 40.3397 -95.4594 252° West 410 472 38,000  Level Minneapolis Center
Tue 02:54:29 PM 40.3072 -95.6025 253° West 409 471 38,000  Level Minneapolis Center
Tue 02:55:31 PM 40.2800 -95.7167 253° West 408 470 38,000  Level Minneapolis Center
Tue 02:56:33 PM 40.2386 -95.8867 252° West 407 468 38,000  Level Minneapolis Center
Tue 02:57:34 PM 40.2044 -96.0281 252° West 407 468 38,000  Level Minneapolis Center
Tue 02:58:36 PM 40.1700 -96.1714 253° West 411 473 38,000  Level Minneapolis Center
Tue 02:59:37 PM 40.1344 -96.3142 252° West 411 473 38,000  Level Minneapolis Center
Tue 03:00:39 PM 40.1000 -96.4553 252° West 410 472 38,000  Level Minneapolis Center
Tue 03:01:40 PM 40.0586 -96.6261 252° West 409 471 38,000  Level Minneapolis Center
Tue 03:02:42 PM 40.0225 -96.7681 252° West 411 473 38,000  Level Minneapolis Center
Tue 03:03:43 PM 39.9869 -96.9092 252° West 410 472 38,000  Level Minneapolis Center
Tue 03:04:45 PM 39.9517 -97.0517 252° West 412 474 38,000  Level Minneapolis Center
Tue 03:05:46 PM 39.9139 -97.1939 251° West 414 476 38,000  Level Minneapolis Center
Tue 03:06:48 PM 39.8758 -97.3483 252° West 415 478 38,000  Level Minneapolis Center
Tue 03:07:49 PM 39.8381 -97.4908 251° West 415 478 38,000  Level Minneapolis Center
Tue 03:08:51 PM 39.8019 -97.6333 252° West 415 478 38,000  Level Minneapolis Center
Tue 03:09:52 PM 39.7661 -97.7744 252° West 412 474 38,000  Level Minneapolis Center
Tue 03:10:54 PM 39.7286 -97.9156 251° West 412 474 38,000  Level Minneapolis Center
Tue 03:11:55 PM 39.6908 -98.0567 251° West 413 475 38,000  Level Minneapolis Center
Tue 03:12:56 PM 39.6539 -98.1994 251° West 414 476 38,000  Level Minneapolis Center
Tue 03:13:58 PM 39.6164 -98.3403 251° West 413 475 38,000  Level Minneapolis Center
Tue 03:14:19 PM 39.6000 -98.3997 250° West 419 482 38,000  Level Denver Center
Tue 03:15:21 PM 39.5625 -98.5417 251° West 417 480 38,000  Level Denver Center
Tue 03:16:22 PM 39.5236 -98.6853 251° West 420 483 38,000  Level Denver Center
Tue 03:17:24 PM 39.4850 -98.8267 251° West 416 479 38,000  Level Denver Center
Tue 03:18:26 PM 39.4378 -98.9992 251° West 420 483 38,000  Level Denver Center
Tue 03:19:27 PM 39.3986 -99.1425 251° West 421 484 38,000  Level Denver Center
Tue 03:20:29 PM 39.3608 -99.2778 250° West 419 482 38,000  Level Denver Center
Tue 03:21:31 PM 39.3167 -99.4369 250° West 421 484 38,000  Level Denver Center
Tue 03:22:32 PM 39.2789 -99.5728 250° West 420 483 38,000  Level Denver Center
Tue 03:23:34 PM 39.2411 -99.7072 250° West 416 479 38,000  Level Denver Center
Tue 03:24:36 PM 39.1961 -99.8656 250° West 414 476 38,000  Level Denver Center
Tue 03:25:37 PM 39.1597 -99.9958 250° West 412 474 38,000  Level Denver Center
Tue 03:26:39 PM 39.1150 -100.1494 249° West 411 473 38,000  Level Denver Center
Tue 03:27:41 PM 39.0781 -100.2797 250° West 405 466 38,000  Level Denver Center
Tue 03:28:42 PM 39.0400 -100.4094 249° West 406 467 38,000  Level Denver Center
Tue 03:29:44 PM 38.9953 -100.5631 250° West 407 468 38,000  Level Denver Center
Tue 03:30:46 PM 38.9558 -100.6961 249° West 412 474 38,000  Level Denver Center
Tue 03:31:47 PM 38.9114 -100.8506 250° West 414 476 38,000  Level Denver Center
Tue 03:32:49 PM 38.8725 -100.9814 249° West 412 474 38,000  Level Denver Center
Tue 03:33:51 PM 38.8328 -101.1364 252° West 411 473 38,000  Level Denver Center
Tue 03:34:52 PM 38.8075 -101.2722 257° West 412 474 38,000  Level Denver Center
Tue 03:35:54 PM 38.7764 -101.4311 256° West 413 475 38,000  Level Denver Center
Tue 03:36:56 PM 38.7508 -101.5672 257° West 413 475 38,000  Level Denver Center
Tue 03:37:58 PM 38.7264 -101.7028 257° West 411 473 38,000  Level Denver Center
Tue 03:38:59 PM 38.6919 -101.8567 254° West 404 465 38,000  Level Denver Center
Tue 03:40:01 PM 38.6575 -101.9889 252° West 410 472 38,000  Level Denver Center
Tue 03:41:03 PM 38.6133 -102.1406 250° West 411 473 38,000  Level Denver Center
Tue 03:42:04 PM 38.5731 -102.2706 248° West 411 473 38,000  Level Denver Center
Tue 03:43:06 PM 38.5269 -102.4222 249° West 412 474 38,000  Level Denver Center
Tue 03:44:08 PM 38.4867 -102.5506 248° West 409 471 38,000  Level Denver Center
Tue 03:45:10 PM 38.4408 -102.7011 249° West 409 471 38,000  Level Denver Center
Tue 03:46:11 PM 38.3956 -102.8272 245° Southwest 410 472 38,000  Level Denver Center
Tue 03:47:13 PM 38.3461 -102.9767 247° West 410 472 38,000  Level Denver Center
Tue 03:48:15 PM 38.3047 -103.1064 248° West 413 475 38,000  Level Denver Center
Tue 03:49:17 PM 38.2628 -103.2350 247° West 413 475 38,000  Level Denver Center
Tue 03:50:18 PM 38.2136 -103.3858 248° West 414 476 38,000  Level Denver Center
Tue 03:51:20 PM 38.1706 -103.5161 247° West 417 480 38,000  Level Denver Center
Tue 03:52:22 PM 38.1208 -103.6672 247° West 417 480 38,000  Level Denver Center
Tue 03:53:24 PM 38.0783 -103.7956 247° West 415 478 38,000  Level Denver Center
Tue 03:54:25 PM 38.0289 -103.9444 247° West 413 475 38,000  Level Denver Center
Tue 03:55:27 PM 37.9861 -104.0700 247° West 410 472 38,000  Level Denver Center
Tue 03:56:29 PM 37.9381 -104.2169 248° West 407 468 38,000  Level Denver Center
Tue 03:57:30 PM 37.8953 -104.3431 247° West 409 471 38,000  Level Denver Center
Tue 03:58:32 PM 37.8447 -104.4914 247° West 414 476 38,000  Level Denver Center
Tue 03:59:34 PM 37.8011 -104.6194 247° West 416 479 38,000  Level Denver Center
Tue 04:00:36 PM 37.7572 -104.7447 246° West 409 471 38,000  Level Denver Center
Tue 04:01:37 PM 37.7081 -104.8903 247° West 407 468 38,000  Level Denver Center
Tue 04:02:39 PM 37.6647 -105.0144 246° West 404 465 38,000  Level Denver Center
Tue 04:03:41 PM 37.6144 -105.1583 246° West 401 461 38,000  Level Denver Center
Tue 04:04:42 PM 37.5714 -105.2842 247° West 408 470 38,000  Level Denver Center
Tue 04:05:44 PM 37.5161 -105.4358 245° Southwest 417 480 38,000  Level Denver Center
Tue 04:06:46 PM 37.4714 -105.5661 247° West 422 486 38,000  Level Denver Center
Tue 04:07:47 PM 37.4256 -105.6925 245° Southwest 415 478 38,000  Level Denver Center
Tue 04:08:49 PM 37.3747 -105.8394 247° West 410 472 38,000  Level Denver Center
Tue 04:09:51 PM 37.3308 -105.9636 246° West 407 468 38,000  Level Denver Center
Tue 04:10:53 PM 37.2786 -106.1067 245° Southwest 403 464 38,000  Level Denver Center
Tue 04:11:54 PM 37.2328 -106.2289 245° Southwest 403 464 38,000  Level Denver Center
Tue 04:12:56 PM 37.1833 -106.3739 247° West 406 467 38,000  Level Denver Center
Tue 04:13:58 PM 37.1372 -106.4989 245° Southwest 411 473 38,000  Level Denver Center
Tue 04:14:59 PM 37.0900 -106.6267 245° Southwest 420 483 38,000  Level Denver Center
Tue 04:16:01 PM 37.0372 -106.7758 246° West 418 481 38,000  Level Denver Center
Tue 04:17:03 PM 36.9889 -106.9028 245° Southwest 422 486 38,000  Level Denver Center
Tue 04:18:04 PM 36.9358 -107.0489 246° West 416 479 38,000  Level Denver Center
Tue 04:19:06 PM 36.8897 -107.1736 245° Southwest 413 475 38,000  Level Denver Center
Tue 04:20:08 PM 36.8353 -107.3175 245° Southwest 411 473 38,000  Level Denver Center
Tue 04:21:09 PM 36.7894 -107.4414 245° Southwest 410 472 38,000  Level Denver Center
Tue 04:22:11 PM 36.7428 -107.5639 245° Southwest 409 471 38,000  Level Denver Center
Tue 04:23:13 PM 36.6881 -107.7075 245° Southwest 411 473 38,000  Level Denver Center
Tue 04:24:14 PM 36.6422 -107.8314 245° Southwest 411 473 38,000  Level Denver Center
Tue 04:25:16 PM 36.5867 -107.9772 245° Southwest 417 480 38,000  Level Denver Center
Tue 04:26:18 PM 36.5392 -108.1017 245° Southwest 417 480 38,000  Level Denver Center
Tue 04:27:19 PM 36.4831 -108.2456 244° Southwest 415 478 38,000  Level Denver Center
Tue 04:28:21 PM 36.4358 -108.3697 245° Southwest 416 479 38,000  Level Denver Center
Tue 04:29:23 PM 36.3886 -108.4914 244° Southwest 412 474 38,000  Level Denver Center
Tue 04:30:36 PM 36.3333 -108.6344 244° Southwest 412 474 38,000  Level Denver Center
Tue 04:31:38 PM 36.2703 -108.7972 244° Southwest 413 475 38,000  Level Denver Center
Tue 04:32:40 PM 36.2231 -108.9189 244° Southwest 414 476 38,000  Level Denver Center
Tue 04:33:42 PM 36.1653 -109.0603 243° Southwest 418 481 38,000  Level Denver Center
Tue 04:34:43 PM 36.1153 -109.1853 244° Southwest 426 490 38,000  Level Denver Center
Tue 04:34:59 PM 36.0986 -109.2269 244° Southwest 426 490 38,000  Level Albuquerque Center
Tue 04:36:01 PM 36.0494 -109.3517 244° Southwest 425 489 38,000  Level Albuquerque Center
Tue 04:36:47 PM 36.0072 -109.4558 243° Southwest 424 488 38,000  Level Denver Center
Tue 04:37:48 PM 35.9511 -109.5989 244° Southwest 418 481 38,000  Level Denver Center
Tue 04:38:50 PM 35.9014 -109.7197 243° Southwest 414 476 38,000  Level Denver Center
Tue 04:39:52 PM 35.8536 -109.8400 244° Southwest 409 471 38,000  Level Denver Center
Tue 04:40:08 PM 35.8325 -109.8783 236° Southwest 413 475 38,000  Level Albuquerque Center
Tue 04:41:10 PM 35.7778 -110.0200 245° Southwest 411 473 38,000  Level Albuquerque Center
Tue 04:42:12 PM 35.7253 -110.1428 242° Southwest 419 482 38,000  Level Albuquerque Center
Tue 04:43:13 PM 35.6669 -110.2856 243° Southwest 418 481 38,000  Level Albuquerque Center
Tue 04:44:15 PM 35.6169 -110.4083 243° Southwest 420 483 38,000  Level Albuquerque Center
Tue 04:45:17 PM 35.5656 -110.5306 243° Southwest 420 483 38,000  Level Albuquerque Center
Tue 04:46:19 PM 35.5058 -110.6750 243° Southwest 424 488 38,000  Level Albuquerque Center
Tue 04:47:21 PM 35.4556 -110.7989 244° Southwest 424 488 38,000  Level Albuquerque Center
Tue 04:48:23 PM 35.4086 -110.9489 249° West 421 484 38,000  Level Albuquerque Center
Tue 04:49:25 PM 35.3669 -111.0792 249° West 426 490 38,000  Level Albuquerque Center
Tue 04:50:27 PM 35.3167 -111.2278 248° West 425 489 38,000  Level Albuquerque Center
Tue 04:51:29 PM 35.2756 -111.3614 249° West 431 496 38,000  Level Albuquerque Center
Tue 04:52:30 PM 35.2311 -111.4911 247° West 420 483 38,000  Level Albuquerque Center
Tue 04:53:32 PM 35.1869 -111.6225 248° West 419 482 38,000  Level Albuquerque Center
Tue 04:54:34 PM 35.1394 -111.7631 248° West 417 480 38,000  Level Albuquerque Center
Tue 04:55:36 PM 35.0950 -111.8950 248° West 419 482 38,000  Level Albuquerque Center
Tue 04:56:38 PM 35.0497 -112.0258 247° West 420 483 38,000  Level Albuquerque Center
Tue 04:57:40 PM 35.0042 -112.1586 247° West 424 488 38,000  Level Albuquerque Center
Tue 04:58:42 PM 34.9492 -112.3192 247° West 427 491 38,000  Level Albuquerque Center
Tue 04:59:44 PM 34.9036 -112.4522 247° West 426 490 38,000  Level Albuquerque Center
Tue 05:00:46 PM 34.8572 -112.5850 247° West 426 490 38,000  Level Albuquerque Center
Tue 05:01:47 PM 34.8111 -112.7189 247° West 428 493 38,000  Level Albuquerque Center
Tue 05:02:49 PM 34.7647 -112.8511 247° West 427 491 38,000 -339 Level Albuquerque Center
Tue 05:03:51 PM 34.7361 -112.9917 256° West 427 491 37,300 -823 Descending Albuquerque Center
Tue 05:04:53 PM 34.7100 -113.1336 257° West 429 494 36,300 -1,016 Descending Albuquerque Center
Tue 05:05:55 PM 34.6786 -113.3047 257° West 432 497 35,200 -968 Descending Albuquerque Center
Tue 05:06:57 PM 34.6442 -113.4447 253° West 434 499 34,300 -581 Descending Albuquerque Center
Tue 05:07:59 PM 34.5883 -113.5731 242° Southwest 433 498 34,000 -145 Descending Albuquerque Center
Tue 05:09:01 PM 34.5242 -113.7208 242° Southwest 433 498 34,000  Level Albuquerque Center
Tue 05:10:03 PM 34.4692 -113.8492 243° Southwest 429 494 34,000  Level Albuquerque Center
Tue 05:11:05 PM 34.4128 -113.9758 242° Southwest 427 491 34,000  Level Albuquerque Center
Tue 05:12:07 PM 34.3572 -114.1014 242° Southwest 426 490 34,000 -484 Level Albuquerque Center
Tue 05:13:09 PM 34.3003 -114.2286 242° Southwest 427 491 33,000 -919 Descending Albuquerque Center
Tue 05:14:11 PM 34.2433 -114.3564 242° Southwest 430 495 32,100 -1,024 Descending Albuquerque Center
Tue 05:14:31 PM 34.2197 -114.4097 242° Southwest 430 495 31,600 -1,084 Descending Los Angeles Center
Tue 05:15:34 PM 34.1625 -114.5369 242° Southwest 431 496 30,600 -871 Descending Los Angeles Center
Tue 05:16:35 PM 34.1172 -114.6383 242° Southwest 431 496 29,800 -968 Descending Los Angeles Center
Tue 05:17:38 PM 34.0508 -114.7867 242° Southwest 423 487 28,600 -864 Descending Los Angeles Center
Tue 05:18:40 PM 33.9822 -114.9339 241° Southwest 421 484 28,000 -290 Descending Los Angeles Center
Tue 05:19:42 PM 33.9267 -115.0553 241° Southwest 417 480 28,000  Level Los Angeles Center
Tue 05:20:44 PM 33.8833 -115.1514 242° Southwest 414 476 28,000  Level Los Angeles Center
Tue 05:21:46 PM 33.8178 -115.2944 241° Southwest 409 471 28,000  Level Los Angeles Center
Tue 05:22:48 PM 33.7625 -115.4131 241° Southwest 408 470 28,000  Level Los Angeles Center
Tue 05:23:50 PM 33.7078 -115.5328 241° Southwest 410 472 28,000  Level Los Angeles Center
Tue 05:24:52 PM 33.6411 -115.6750 241° Southwest 407 468 28,000  Level Los Angeles Center
Tue 05:25:55 PM 33.5694 -115.7822 231° Southwest 417 480 28,000 -624 Level Los Angeles Center
Tue 05:26:57 PM 33.4897 -115.8789 225° Southwest 411 473 26,700 -1,588 Descending Los Angeles Center
Tue 05:28:11 PM 33.4064 -115.9747 224° Southwest 415 478 24,400 -2,426 Descending Los Angeles Center
Tue 05:29:13 PM 33.3117 -116.0867 225° Southwest 404 465 21,200 -3,194 Descending Los Angeles Center
Tue 05:30:15 PM 33.2183 -116.1972 225° Southwest 397 457 17,800 -2,496 Descending Los Angeles Center
Tue 05:31:18 PM 33.1419 -116.2850 224° Southwest 389 448 16,000 -2,016 Descending Los Angeles Center
Tue 05:32:20 PM 33.0706 -116.3692 225° Southwest 372 428 13,600 -1,935 Descending Los Angeles Center
Tue 05:33:22 PM 33.0022 -116.4542 226° Southwest 358 412 12,000 -1,597 Descending Los Angeles Center
Tue 05:34:24 PM 32.9372 -116.5517 232° Southwest 332 382 10,300 -1,258 Descending Los Angeles Center
Tue 05:35:26 PM 32.8864 -116.6253 231° Southwest 298 343 9,400 -1,113 Descending Los Angeles Center
Tue 05:36:28 PM 32.8378 -116.6961 231° Southwest 283 326 8,000 -1,306 Descending Los Angeles Center
Tue 05:37:30 PM 32.7900 -116.7642 230° Southwest 274 315 6,700 -968 Descending Los Angeles Center
Tue 05:38:32 PM 32.7447 -116.8306 231° Southwest 265 305 6,000 -772 Descending Los Angeles Center
Tue 05:39:11 PM 32.7167 -116.8833 238° Southwest 231 266 5,400 -857 Descending Southern California TRACON
Tue 05:40:17 PM 32.6833 -116.9333 232° Southwest 221 254 4,500 -1,100 Descending Southern California TRACON
Tue 05:41:11 PM 32.6833 -117.0000 270° West 197 227 3,200 -1,150 Descending Southern California TRACON
Tue 05:42:17 PM 32.7000 -117.0667 287° West 169 194 2,200 -857 Descending Southern California TRACON
Tue 05:43:17 PM 32.7167 -117.1000 301° West 140 161 1,400 -789 Descending Southern California TRACON
Tue 05:44:11 PM 32.7167 -117.1500 270° West 138 159 700 -682 Descending Southern California TRACON
Tue 05:44:45 PM 32.7278 -117.1644 312° West 141 162 400 -529 Descending Los Angeles Center
Tue 05:46:00 PM 32.7333 -117.1833 281° West  Level FlightAware Approximate
Tue 05:53:00 PM 32.7336 -117.1897 281° West  Level Estimated

Login

Don't have an account? Register now (free) for customized features, flight alerts, and more!